createdAt,value
2018-12-06T00:00:07.960Z,1.6
2018-12-06T00:05:18.127Z,1.6
2018-12-06T00:10:17.787Z,1.7
2018-12-06T00:15:33.019Z,1.7
2018-12-06T00:20:05.613Z,1.7
2018-12-06T00:25:05.602Z,1.7
2018-12-06T00:30:02.532Z,1.7
2018-12-06T00:35:02.537Z,1.8
2018-12-06T00:40:05.429Z,1.8
2018-12-06T00:45:02.955Z,1.8
2018-12-06T00:50:02.950Z,1.8
2018-12-06T00:55:02.903Z,1.9
2018-12-06T01:00:12.962Z,1.9
2018-12-06T01:05:02.830Z,1.9
2018-12-06T01:10:03.209Z,1.9
2018-12-06T01:15:05.706Z,1.9
2018-12-06T01:20:05.243Z,2
2018-12-06T01:25:02.677Z,1.9
2018-12-06T01:30:02.684Z,2
2018-12-06T01:35:02.696Z,2
2018-12-06T01:40:05.600Z,2
2018-12-06T01:45:08.160Z,2
2018-12-06T01:50:03.117Z,2
2018-12-06T01:55:03.097Z,2
2018-12-06T02:00:03.066Z,2.1
2018-12-06T02:05:05.580Z,2.1
2018-12-06T02:10:02.950Z,2
2018-12-06T02:15:02.883Z,2.1
2018-12-06T02:20:02.890Z,2
2018-12-06T02:25:02.908Z,2
2018-12-06T02:30:02.936Z,2
2018-12-06T02:35:02.977Z,2
2018-12-06T02:40:07.471Z,2
2018-12-06T02:45:02.426Z,2
2018-12-06T02:50:02.409Z,2
2018-12-06T02:55:02.482Z,2.1
2018-12-06T03:00:07.567Z,2.2
2018-12-06T03:05:02.514Z,2.1
2018-12-06T03:10:02.939Z,2.2
2018-12-06T03:15:03.005Z,2.2
2018-12-06T03:20:05.576Z,2.2
2018-12-06T03:25:03.114Z,2.2
2018-12-06T03:30:05.647Z,2.3
2018-12-06T03:35:03.157Z,2.3
2018-12-06T03:40:02.565Z,2.3
2018-12-06T03:45:05.129Z,2.4
2018-12-06T03:50:03.132Z,2.4
2018-12-06T03:55:03.168Z,2.4
2018-12-06T04:00:03.209Z,2.4
2018-12-06T04:05:15.807Z,2.4
2018-12-06T04:10:08.285Z,2.4
2018-12-06T04:15:03.249Z,2.4
2018-12-06T04:20:04.844Z,2.4
2018-12-06T04:25:02.318Z,2.4
2018-12-06T04:30:02.331Z,2.4
2018-12-06T04:35:04.873Z,2.5
2018-12-06T04:40:10.861Z,2.5
2018-12-06T04:45:02.294Z,2.5
2018-12-06T04:50:05.367Z,2.5
2018-12-06T04:55:05.362Z,2.6
2018-12-06T05:00:02.350Z,2.6
2018-12-06T05:05:04.900Z,2.7
2018-12-06T05:10:03.251Z,2.7
2018-12-06T05:15:02.325Z,2.8
2018-12-06T05:20:07.476Z,2.8
2018-12-06T05:25:02.402Z,2.8
2018-12-06T05:30:02.405Z,2.9
2018-12-06T05:35:02.405Z,2.9
2018-12-06T05:40:05.299Z,2.9
2018-12-06T05:45:02.774Z,2.9
2018-12-06T05:50:10.326Z,3
2018-12-06T05:55:10.289Z,3.1
2018-12-06T06:00:03.246Z,3.1
2018-12-06T06:05:04.843Z,3.2
2018-12-06T06:10:03.237Z,3.1
2018-12-06T06:15:08.268Z,3.2
2018-12-06T06:20:02.500Z,3.2
2018-12-06T06:25:02.562Z,3.3
2018-12-06T06:30:02.872Z,3.3
2018-12-06T06:35:05.393Z,3.4
2018-12-06T06:40:02.762Z,3.4
2018-12-06T06:45:02.734Z,3.4
2018-12-06T06:50:07.765Z,3.4
2018-12-06T06:55:02.706Z,3.3
2018-12-06T07:00:02.685Z,3.4
2018-12-06T07:05:05.183Z,3.4
2018-12-06T07:10:02.602Z,3.3
2018-12-06T07:15:02.574Z,3.4
2018-12-06T07:20:02.585Z,3.4
2018-12-06T07:25:02.607Z,3.4
2018-12-06T07:30:02.549Z,3.4
2018-12-06T07:35:02.574Z,3.4
2018-12-06T07:40:02.963Z,3.4
2018-12-06T07:45:02.959Z,3.4
2018-12-06T07:50:02.947Z,3.5
2018-12-06T07:55:05.490Z,3.6
2018-12-06T08:00:05.011Z,3.7
2018-12-06T08:05:07.538Z,3.7
2018-12-06T08:10:05.430Z,3.8
2018-12-06T08:15:05.412Z,3.8
2018-12-06T08:20:02.442Z,3.8
2018-12-06T08:25:04.939Z,3.9
2018-12-06T08:30:05.432Z,4
2018-12-06T08:35:02.883Z,4
2018-12-06T08:40:03.254Z,4.1
2018-12-06T08:45:03.129Z,4.2
2018-12-06T08:50:03.099Z,4.3
2018-12-06T08:55:02.913Z,4.5
2018-12-06T09:00:07.964Z,4.6
2018-12-06T09:05:02.937Z,4.6
2018-12-06T09:10:02.416Z,4.6
2018-12-06T09:15:02.410Z,4.7
2018-12-06T09:20:02.443Z,4.8
2018-12-06T09:25:02.457Z,4.8
2018-12-06T09:30:02.445Z,4.8
2018-12-06T09:35:02.406Z,4.9
2018-12-06T09:40:10.400Z,4.9
2018-12-06T09:45:02.829Z,4.9
2018-12-06T09:50:05.319Z,5
2018-12-06T09:55:02.789Z,5
2018-12-06T10:00:02.794Z,5.1
2018-12-06T10:05:05.325Z,5.1
2018-12-06T10:10:02.735Z,5.1
2018-12-06T10:15:02.342Z,5.1
2018-12-06T10:20:02.367Z,5.1
2018-12-06T10:25:04.909Z,5.2
2018-12-06T10:30:05.430Z,5.3
2018-12-06T10:35:05.444Z,5.3
2018-12-06T10:40:02.841Z,5.3
2018-12-06T10:45:02.850Z,5.4
2018-12-06T10:50:02.824Z,5.5
2018-12-06T10:55:05.387Z,5.6
2018-12-06T11:00:02.351Z,5.6
2018-12-06T11:05:02.412Z,5.7
2018-12-06T11:10:02.778Z,5.7
2018-12-06T11:15:10.419Z,5.9
2018-12-06T11:20:02.620Z,5.9
2018-12-06T11:25:02.632Z,6
2018-12-06T11:30:02.622Z,6.1
2018-12-06T11:35:02.651Z,6.2
2018-12-06T11:40:05.568Z,6.3
2018-12-06T11:45:04.824Z,6.4
2018-12-06T11:50:02.671Z,6.4
2018-12-06T11:55:02.684Z,6.4
2018-12-06T12:00:02.685Z,6.4
2018-12-06T12:05:05.218Z,6.5
2018-12-06T12:10:02.620Z,6.5
2018-12-06T12:15:05.156Z,6.6
2018-12-06T12:20:03.223Z,6.6
2018-12-06T12:25:02.259Z,6.6
2018-12-06T12:30:05.780Z,6.6
2018-12-06T12:35:02.362Z,6.6
2018-12-06T12:40:02.750Z,6.6
2018-12-06T12:45:20.460Z,6.5
2018-12-06T12:50:02.436Z,6.6
2018-12-06T12:55:02.495Z,6.6
2018-12-06T13:00:02.460Z,6.6
2018-12-06T13:05:04.998Z,6.6
2018-12-06T13:10:02.380Z,6.6
2018-12-06T13:15:02.388Z,6.6
2018-12-06T13:20:02.449Z,6.6
2018-12-06T13:25:07.540Z,6.6
2018-12-06T13:30:02.508Z,6.6
2018-12-06T13:35:02.557Z,6.6
2018-12-06T13:40:02.965Z,6.6
2018-12-06T13:45:02.968Z,6.6
2018-12-06T13:50:02.932Z,6.6
2018-12-06T13:55:10.564Z,6.6
2018-12-06T14:00:05.166Z,6.6
2018-12-06T14:05:02.671Z,6.6
2018-12-06T14:10:03.042Z,6.6
2018-12-06T14:15:03.097Z,6.7
2018-12-06T14:20:03.226Z,6.7
2018-12-06T14:25:02.244Z,6.7
2018-12-06T14:30:04.839Z,6.8
2018-12-06T14:35:02.315Z,6.8
2018-12-06T14:40:05.235Z,6.9
2018-12-06T14:45:02.719Z,6.9
2018-12-06T14:50:10.289Z,6.9
2018-12-06T14:55:02.745Z,6.9
2018-12-06T15:00:02.758Z,7
2018-12-06T15:05:02.795Z,7.1
2018-12-06T15:10:03.181Z,7.1
2018-12-06T15:15:03.194Z,7.1
2018-12-06T15:20:03.250Z,7.1
2018-12-06T15:25:09.868Z,7.1
2018-12-06T15:30:02.861Z,7.1
2018-12-06T15:35:02.875Z,7.1
2018-12-06T15:40:13.380Z,7
2018-12-06T15:45:02.306Z,7
2018-12-06T15:50:02.339Z,7
2018-12-06T15:55:04.899Z,7
2018-12-06T16:00:07.966Z,6.9
2018-12-06T16:05:02.923Z,6.9
2018-12-06T16:10:17.517Z,6.9
2018-12-06T16:15:02.343Z,7
2018-12-06T16:20:04.936Z,7
2018-12-06T16:25:02.422Z,7
2018-12-06T16:30:02.408Z,7
2018-12-06T16:35:02.448Z,7
2018-12-06T16:40:02.909Z,7.1
2018-12-06T16:45:02.846Z,7.1
2018-12-06T16:50:02.871Z,7.1
2018-12-06T16:55:02.910Z,7.2
2018-12-06T17:00:05.438Z,7.3
2018-12-06T17:05:02.962Z,7.3
2018-12-06T17:10:07.421Z,7.3
2018-12-06T17:15:12.501Z,7.4
2018-12-06T17:20:02.557Z,7.3
2018-12-06T17:25:10.147Z,7.4
2018-12-06T17:30:08.200Z,7.4
2018-12-06T17:35:03.215Z,7.5
2018-12-06T17:40:02.584Z,7.5
2018-12-06T17:45:07.679Z,7.6
2018-12-06T17:50:02.792Z,7.6
2018-12-06T17:55:07.886Z,7.7
2018-12-06T18:00:05.409Z,7.8
2018-12-06T18:05:02.926Z,7.8
2018-12-06T18:10:04.874Z,7.9
2018-12-06T18:15:02.383Z,7.9
2018-12-06T18:20:05.550Z,7.9
2018-12-06T18:25:02.495Z,7.9
2018-12-06T18:30:02.497Z,8
2018-12-06T18:35:02.568Z,8
2018-12-06T18:40:05.500Z,8.1
2018-12-06T18:45:03.016Z,8
2018-12-06T18:50:03.208Z,8.1
2018-12-06T18:55:08.232Z,8.1
2018-12-06T19:00:03.226Z,8.1
2018-12-06T19:05:20.949Z,8.2
2018-12-06T19:10:02.374Z,8.2
2018-12-06T19:15:02.683Z,8.2
2018-12-06T19:20:02.752Z,8.2
2018-12-06T19:25:02.780Z,8.3
2018-12-06T19:30:02.807Z,8.3
2018-12-06T19:35:05.367Z,8.3
2018-12-06T19:40:07.850Z,8.3
2018-12-06T19:45:02.795Z,8.3
2018-12-06T19:50:02.813Z,8.3
2018-12-06T19:55:05.373Z,8.4
2018-12-06T20:00:02.408Z,8.4
2018-12-06T20:05:10.012Z,8.5
2018-12-06T20:10:02.443Z,8.5
2018-12-06T20:15:07.573Z,8.5
2018-12-06T20:20:02.632Z,8.5
2018-12-06T20:25:02.799Z,8.6
2018-12-06T20:30:03.226Z,8.6
2018-12-06T20:35:02.301Z,8.5
2018-12-06T20:40:15.361Z,8.5
2018-12-06T20:45:02.750Z,8.5
2018-12-06T20:50:02.737Z,8.5
2018-12-06T20:55:02.793Z,8.6
2018-12-06T21:00:02.788Z,8.6
2018-12-06T21:05:07.894Z,8.6
2018-12-06T21:10:02.305Z,8.6
2018-12-06T21:15:02.781Z,8.6
2018-12-06T21:20:02.871Z,8.6
2018-12-06T21:25:02.895Z,8.7
2018-12-06T21:30:02.915Z,8.7
2018-12-06T21:35:02.958Z,8.7
2018-12-06T21:40:05.792Z,8.8
2018-12-06T21:45:02.768Z,8.8
2018-12-06T21:50:02.800Z,8.8
2018-12-06T21:55:02.860Z,8.8
2018-12-06T22:00:02.904Z,8.9
2018-12-06T22:05:02.946Z,8.9
2018-12-06T22:10:04.867Z,9
2018-12-06T22:15:02.360Z,8.9
2018-12-06T22:20:02.404Z,9
2018-12-06T22:25:02.471Z,9
2018-12-06T22:30:02.536Z,9
2018-12-06T22:35:02.559Z,9
2018-12-06T22:40:03.004Z,9
2018-12-06T22:45:10.652Z,9
2018-12-06T22:50:07.696Z,9.1
2018-12-06T22:55:05.209Z,9.1
2018-12-06T23:00:03.225Z,9.1
2018-12-06T23:05:04.830Z,9.1
2018-12-06T23:10:05.730Z,9.2
2018-12-06T23:15:02.247Z,9.1
2018-12-06T23:20:02.348Z,9.2
2018-12-06T23:25:02.400Z,9.2
2018-12-06T23:30:07.539Z,9.2
2018-12-06T23:35:04.989Z,9.3
2018-12-06T23:40:04.954Z,9.3
2018-12-06T23:45:02.551Z,9.3
2018-12-06T23:50:02.575Z,9.3
2018-12-06T23:55:05.169Z,9.4
